Flight Track Log - Related Links

Times and Time Zones

All times are in EDT time to prevent confusion due to time zone crossing. See the DAL1349 flight status page for this flight to view local times or setup timezone preferences in your user account.

Time Position Orientation Groundspeed Altitude Reporting Facility
EDT Latitude Longitude Course Direction KTS MPH feet Rate Location/Type
Fri 07:14:36 AM 38.3478 -81.6236 207° Southwest 159 183 2,900  Level Indianapolis Center
Fri 07:15:37 AM 38.2961 -81.6533 204° Southwest 202 232 5,000 2,656 Climbing Indianapolis Center
Fri 07:16:00 AM 38.0764 -81.7535 202° Southwest  Level FlightAware Approximate
Fri 07:16:38 AM 38.2311 -81.6919 205° Southwest 256 295 8,300  Level Indianapolis Center
Fri 07:17:00 AM 37.9766 -81.8056 204° Southwest  Level FlightAware Approximate
Fri 07:17:39 AM 38.1436 -81.7417 204° Southwest 283 326 11,100  Level Indianapolis Center
Fri 07:18:00 AM 37.8778 -81.8605 204° Southwest  Level FlightAware Approximate
Fri 07:18:41 AM 38.0553 -81.7911 204° Southwest 348 400 13,700  Level Indianapolis Center
Fri 07:19:00 AM 37.7813 -81.9217 207° Southwest  Level FlightAware Approximate
Fri 07:19:42 AM 37.9633 -81.8450 205° Southwest 361 415 16,500  Level Indianapolis Center
Fri 07:20:43 AM 37.8650 -81.9008 204° Southwest 381 438 18,600 2,262 Climbing Indianapolis Center
Fri 07:21:44 AM 37.7675 -81.9558 204° Southwest 396 456 21,100 2,293 Climbing Indianapolis Center
Fri 07:22:46 AM 37.6647 -82.0164 205° Southwest 404 465 23,300 2,000 Climbing Indianapolis Center
Fri 07:23:47 AM 37.5564 -82.0767 204° Southwest 419 482 25,200 1,869 Climbing Indianapolis Center
Fri 07:24:48 AM 37.4278 -82.1506 205° Southwest 429 494 27,100 1,770 Climbing Indianapolis Center
Fri 07:25:49 AM 37.3139 -82.2139 204° Southwest 443 510 28,800 1,488 Climbing Indianapolis Center
Fri 07:26:53 AM 37.1906 -82.2856 205° Southwest 482 555 30,200 1,500 Climbing Atlanta Center
Fri 07:27:53 AM 37.0789 -82.3453 203° Southwest 464 534 31,900 900 Climbing Atlanta Center
Fri 07:28:53 AM 36.9650 -82.4072 203° Southwest 453 521 32,000 50 Climbing Atlanta Center
Fri 07:29:53 AM 36.8553 -82.4692 204° Southwest 443 510 32,000  Level Atlanta Center
Fri 07:30:53 AM 36.7433 -82.5311 204° Southwest 443 510 32,000  Level Atlanta Center
Fri 07:31:53 AM 36.6336 -82.5900 203° Southwest 437 503 32,000  Level Atlanta Center
Fri 07:32:53 AM 36.5217 -82.6514 204° Southwest 437 503 32,000  Level Atlanta Center
Fri 07:33:53 AM 36.4097 -82.7128 204° Southwest 437 503 32,000  Level Atlanta Center
Fri 07:34:53 AM 36.2978 -82.7764 205° Southwest 437 503 32,000  Level Atlanta Center
Fri 07:35:53 AM 36.1964 -82.8319 204° Southwest 437 503 32,000  Level Atlanta Center
Fri 07:36:53 AM 36.0864 -82.8903 203° Southwest 437 503 32,000  Level Atlanta Center
Fri 07:37:53 AM 35.9742 -82.9508 204° Southwest 442 509 32,000  Level Atlanta Center
Fri 07:38:53 AM 35.8661 -83.0111 204° Southwest 437 503 32,000  Level Atlanta Center
Fri 07:39:53 AM 35.7539 -83.0586 199° South 437 503 32,000 -150 Level Atlanta Center
Fri 07:40:53 AM 35.6333 -83.0983 195° South 442 509 31,700 -600 Descending Atlanta Center
Fri 07:41:53 AM 35.5211 -83.1533 202° Southwest 442 509 30,800 -950 Descending Atlanta Center
Fri 07:42:53 AM 35.4089 -83.2081 202° Southwest 442 509 29,800 -900 Descending Atlanta Center
Fri 07:43:53 AM 35.2986 -83.2625 202° Southwest 435 501 29,000 -750 Descending Atlanta Center
Fri 07:44:53 AM 35.1778 -83.3222 202° Southwest 435 501 28,300 -900 Descending Atlanta Center
Fri 07:45:53 AM 35.0822 -83.3686 202° Southwest 430 495 27,200 -1,050 Descending Atlanta Center
Fri 07:46:53 AM 34.9761 -83.4203 202° Southwest 430 495 26,200 -1,100 Descending Atlanta Center
Fri 07:47:53 AM 34.8594 -83.4769 202° Southwest 423 487 25,000 -1,100 Descending Atlanta Center
Fri 07:48:53 AM 34.7553 -83.5256 201° Southwest 416 479 24,000 -600 Descending Atlanta Center
Fri 07:49:53 AM 34.6617 -83.5692 201° Southwest 409 471 23,800 -600 Descending Atlanta Center
Fri 07:50:53 AM 34.5533 -83.6253 203° Southwest 420 483 22,800 -950 Descending Atlanta Center
Fri 07:51:53 AM 34.4428 -83.6761 201° Southwest 433 498 21,900 -1,450 Descending Atlanta Center
Fri 07:52:53 AM 34.3322 -83.7294 202° Southwest 428 493 19,900 -2,150 Descending Atlanta Center
Fri 07:53:53 AM 34.2281 -83.7800 202° Southwest 418 481 17,600 -2,450 Descending Atlanta Center
Fri 07:54:53 AM 34.1156 -83.8331 201° Southwest 406 467 15,000 -1,964 Descending Atlanta Center
Fri 07:55:43 AM 34.0333 -83.9000 214° Southwest 380 437 14,000 -1,385 Descending Atlanta TRACON
Fri 07:56:37 AM 33.9833 -83.9667 228° Southwest 370 426 12,600 -1,053 Descending Atlanta TRACON
Fri 07:57:37 AM 33.9000 -84.0500 220° Southwest 360 414 12,000 -300 Descending Atlanta TRACON
Fri 07:58:37 AM 33.8167 -84.1167 214° Southwest 339 390 12,000  Level Atlanta TRACON
Fri 07:59:31 AM 33.7500 -84.1667 212° Southwest 296 341 12,000  Level Atlanta TRACON
Fri 08:00:25 AM 33.7333 -84.2333 253° West 277 319 12,000  Level Atlanta TRACON
Fri 08:01:25 AM 33.7333 -84.3333 270° West 276 318 12,000 -1,000 Level Atlanta TRACON
Fri 08:02:19 AM 33.7333 -84.4167 270° West 277 319 10,100 -2,450 Descending Atlanta TRACON
Fri 08:03:25 AM 33.7333 -84.5000 270° West 269 310 7,100 -2,700 Descending Atlanta TRACON
Fri 08:04:19 AM 33.7333 -84.5833 270° West 266 306 4,700 -1,722 Descending Atlanta TRACON
Fri 08:05:13 AM 33.7333 -84.6667 270° West 236 272 4,000 -368 Descending Atlanta TRACON
Fri 08:06:13 AM 33.6833 -84.7000 209° Southwest 209 241 4,000  Level Atlanta TRACON
Fri 08:07:13 AM 33.6500 -84.6500 129° Southeast 181 208 4,000 -105 Level Atlanta TRACON
Fri 08:08:07 AM 33.6500 -84.6000 90° East 176 203 3,800 -632 Descending Atlanta TRACON
Fri 08:09:07 AM 33.6500 -84.5500 90° East 163 188 2,800 -800 Descending Atlanta TRACON
Fri 08:10:07 AM 33.6500 -84.5000 90° East 121 139 2,200 -684 Descending Atlanta TRACON
Fri 08:11:01 AM 33.6500 -84.4667 90° East 121 139 1,500 -778 Descending Atlanta TRACON

Login

Don't have an account? Register now (free) for customized features, flight alerts, and more!